Time;durP1;ratioP1;P1;durP2;ratioP2;P2;SDS_P1;SDS_P2;PMS_P1;PMS_P2;Temp;Humidity;BMP_temperature;BMP_pressure;BME280_temperature;BME280_humidity;BME280_pressure;Samples;Min_cycle;Max_cycle;Signal;HPM_P1;HPM_P2
2023/02/28 00:00:25;;;;;;;;;11.25;11.25;;;;;4.72;46.93;102231.56;4859494;29;45467;-71
2023/02/28 00:02:50;;;;;;;;;19.50;18.75;;;;;5.02;47.47;102283.19;4880469;29;45508;-72
2023/02/28 00:05:19;;;;;;;;;26.50;21.00;;;;;4.89;47.24;102257.41;4859173;29;45885;-72
2023/02/28 00:07:45;;;;;;;;;20.75;20.75;;;;;4.63;47.53;102227.03;4883660;29;45542;-72
2023/02/28 00:10:15;;;;;;;;;17.50;17.00;;;;;4.54;48.27;102204.84;4866022;29;45632;-72
2023/02/28 00:12:41;;;;;;;;;21.00;19.25;;;;;4.73;48.03;102229.84;4867249;29;46228;-72
2023/02/28 00:15:09;;;;;;;;;19.50;18.50;;;;;4.70;48.07;102213.91;4864296;29;46186;-72
2023/02/28 00:17:34;;;;;;;;;23.50;21.25;;;;;5.03;47.45;102268.19;4883716;29;45349;-72
2023/02/28 00:20:11;;;;;;;;;17.50;16.75;;;;;4.69;47.59;102220.94;4876968;29;45419;-72
2023/02/28 00:22:39;;;;;;;;;21.00;20.75;;;;;5.00;47.19;102274.34;4867140;29;47032;-72
2023/02/28 00:25:06;;;;;;;;;21.50;19.00;;;;;4.93;47.29;102253.97;4881918;29;45383;-72
2023/02/28 00:27:33;;;;;;;;;18.00;17.00;;;;;4.92;47.28;102265.41;4873941;29;45655;-72
2023/02/28 00:29:58;;;;;;;;;22.00;20.75;;;;;4.66;47.42;102227.94;4874948;29;45525;-72
2023/02/28 00:32:24;;;;;;;;;20.50;19.00;;;;;4.77;47.45;102258.13;4893013;29;45848;-72
2023/02/28 00:34:50;;;;;;;;;22.50;17.75;;;;;4.90;47.91;102269.78;4866805;29;45496;-72
2023/02/28 00:37:15;;;;;;;;;24.25;19.25;;;;;4.76;47.62;102241.38;4884073;29;45370;-72
2023/02/28 00:39:40;;;;;;;;;20.00;19.00;;;;;4.73;47.58;102235.13;4882622;29;45454;-71
2023/02/28 00:42:07;;;;;;;;;25.75;21.50;;;;;4.90;47.22;102275.09;4883117;29;45680;-72
2023/02/28 00:44:33;;;;;;;;;19.75;17.75;;;;;4.65;47.85;102229.72;4883045;29;46108;-72
2023/02/28 00:46:59;;;;;;;;;23.25;17.25;;;;;4.83;47.77;102274.09;4884510;29;46857;-72
2023/02/28 00:49:25;;;;;;;;;21.25;20.00;;;;;4.88;47.63;102269.75;4886249;29;45356;-72
2023/02/28 00:51:51;;;;;;;;;18.25;16.50;;;;;4.95;47.62;102271.63;4866832;29;47073;-72
2023/02/28 00:54:17;;;;;;;;;18.00;17.75;;;;;4.72;47.19;102250.09;4882448;29;45960;-72
2023/02/28 00:56:42;;;;;;;;;18.75;16.75;;;;;4.87;47.18;102267.97;4855148;29;45643;-72
2023/02/28 00:59:07;;;;;;;;;16.25;16.25;;;;;4.86;47.27;102263.56;4865898;29;45563;-71
2023/02/28 01:01:33;;;;;;;;;15.25;15.25;;;;;4.80;47.58;102255.53;4866820;29;47483;-71
2023/02/28 01:03:59;;;;;;;;;16.75;16.75;;;;;4.67;48.20;102225.31;4870753;29;45455;-71
2023/02/28 01:06:24;;;;;;;;;21.50;19.75;;;;;4.84;46.88;102252.03;4866806;29;45653;-72
2023/02/28 01:08:50;;;;;;;;;18.00;17.25;;;;;5.10;47.29;102286.84;4882723;29;45496;-72
2023/02/28 01:11:17;;;;;;;;;17.00;15.00;;;;;4.80;47.10;102242.28;4883597;29;46483;-72
2023/02/28 01:13:44;;;;;;;;;14.00;14.00;;;;;4.95;47.34;102266.34;4883337;29;45376;-71
2023/02/28 01:16:09;;;;;;;;;16.25;14.00;;;;;4.88;47.32;102247.69;4866222;29;45293;-72
2023/02/28 01:18:36;;;;;;;;;17.25;14.50;;;;;4.91;47.32;102260.97;4879184;29;45316;-72
2023/02/28 01:21:21;;;;;;;;;15.00;15.00;;;;;5.06;47.54;102289.41;4883229;29;46649;-72
2023/02/28 01:23:47;;;;;;;;;17.00;13.25;;;;;4.93;47.20;102267.19;4883364;29;45418;-72
2023/02/28 01:26:21;;;;;;;;;14.75;13.00;;;;;4.85;46.83;102256.47;4882690;29;45462;-72
2023/02/28 01:28:49;;;;;;;;;17.25;14.50;;;;;4.78;47.03;102255.50;4877694;29;45414;-72
2023/02/28 01:31:14;;;;;;;;;13.25;10.00;;;;;4.79;46.76;102262.56;4875894;29;46321;-71
2023/02/28 01:33:40;;;;;;;;;14.50;14.00;;;;;4.67;46.87;102246.50;4882977;29;45385;-72
2023/02/28 01:36:11;;;;;;;;;18.00;15.25;;;;;4.99;46.54;102304.31;4883853;29;45491;-71
2023/02/28 01:38:36;;;;;;;;;17.00;14.25;;;;;4.69;46.55;102255.34;4885795;29;45463;-71
2023/02/28 01:41:03;;;;;;;;;17.50;13.00;;;;;4.94;46.85;102298.94;4869536;29;48195;-72
2023/02/28 01:43:32;;;;;;;;;17.50;14.00;;;;;4.85;46.87;102285.59;4886494;29;45489;-72
2023/02/28 01:45:58;;;;;;;;;14.25;13.75;;;;;4.59;46.73;102241.09;4886812;29;45522;-71
2023/02/28 01:48:36;;;;;;;;;13.00;12.50;;;;;4.69;47.19;102267.69;4885405;29;45379;-72
2023/02/28 01:51:09;;;;;;;;;13.75;13.75;;;;;4.61;46.35;102255.22;4869271;29;48620;-71
2023/02/28 01:53:44;;;;;;;;;12.75;12.75;;;;;4.58;46.21;102249.88;4886595;29;45412;-71
2023/02/28 01:56:14;;;;;;;;;17.00;11.25;;;;;4.64;47.08;102278.19;4873189;29;45384;-72
2023/02/28 01:58:39;;;;;;;;;13.50;10.25;;;;;4.64;47.34;102271.16;4879249;29;45546;-71
2023/02/28 02:01:05;;;;;;;;;15.25;12.00;;;;;4.69;47.07;102299.41;4865684;29;47792;-72
2023/02/28 02:03:31;;;;;;;;;13.00;12.75;;;;;4.55;47.75;102270.97;4869023;29;45485;-71
2023/02/28 02:05:57;;;;;;;;;18.50;15.75;;;;;4.47;46.98;102251.44;4866111;29;45295;-71
2023/02/28 02:08:26;;;;;;;;;12.00;12.00;;;;;4.50;47.33;102256.78;4871289;29;45520;-71
2023/02/28 02:10:58;;;;;;;;;14.50;14.50;;;;;4.38;47.26;102246.91;4866906;29;47328;-72
2023/02/28 02:13:37;;;;;;;;;15.50;13.50;;;;;4.58;47.04;102275.44;4885332;29;45333;-72
2023/02/28 02:16:28;;;;;;;;;13.50;13.50;;;;;4.68;47.90;102284.41;4873961;29;45338;-71
2023/02/28 02:19:13;;;;;;;;;17.75;17.00;;;;;4.54;47.24;102268.31;4865086;29;46039;-71
2023/02/28 02:21:54;;;;;;;;;13.25;13.25;;;;;4.32;47.06;102240.63;4867525;29;47039;-71
2023/02/28 02:24:20;;;;;;;;;19.25;16.25;;;;;4.54;47.18;102274.47;4874279;29;45567;-71
2023/02/28 02:27:13;;;;;;;;;12.50;9.00;;;;;4.38;47.60;102262.75;4868503;29;45452;-71
2023/02/28 02:30:16;;;;;;;;;15.50;13.25;;;;;4.45;47.22;102272.56;4869007;29;45607;-71
2023/02/28 02:32:50;;;;;;;;;15.00;14.50;;;;;4.48;47.35;102279.69;4877213;29;45848;-71
2023/02/28 02:35:28;;;;;;;;;11.50;11.00;;;;;4.28;46.86;102244.97;4868758;29;45337;-71
2023/02/28 02:38:26;;;;;;;;;16.50;12.50;;;;;4.43;47.39;102254.91;4867998;29;45623;-71
2023/02/28 02:41:08;;;;;;;;;13.25;12.50;;;;;4.27;47.14;102222.91;4832191;29;45509;-72
2023/02/28 02:43:45;;;;;;;;;18.50;15.50;;;;;4.46;47.52;102273.50;4858637;29;47327;-72
2023/02/28 02:46:17;;;;;;;;;18.25;14.25;;;;;4.39;47.03;102261.00;4868311;29;45879;-72
2023/02/28 02:48:45;;;;;;;;;15.75;15.75;;;;;4.23;47.69;102236.94;4884263;29;45472;-72
2023/02/28 02:51:15;;;;;;;;;13.75;13.00;;;;;4.16;46.72;102216.56;4885560;29;45690;-71
2023/02/28 02:53:52;;;;;;;;;13.25;12.50;;;;;4.19;47.37;102231.56;4868744;29;47805;-72
2023/02/28 02:56:22;;;;;;;;;13.00;13.00;;;;;4.16;46.33;102226.22;4872728;29;45411;-72
2023/02/28 02:58:52;;;;;;;;;16.25;13.25;;;;;4.11;47.06;102225.25;4866371;29;45546;-71
2023/02/28 03:01:28;;;;;;;;;14.00;13.00;;;;;4.32;46.57;102267.94;4867758;29;45515;-71
2023/02/28 03:04:00;;;;;;;;;12.50;11.00;;;;;4.08;46.65;102237.56;4872788;29;46691;-71
2023/02/28 03:06:26;;;;;;;;;12.50;12.50;;;;;4.10;47.11;102231.41;4868357;29;45776;-71
2023/02/28 03:08:52;;;;;;;;;10.00;10.00;;;;;4.01;46.92;102218.91;4867779;29;45530;-72
2023/02/28 03:11:20;;;;;;;;;12.50;12.50;;;;;4.12;46.75;102240.25;4868534;29;45560;-72
2023/02/28 03:13:59;;;;;;;;;13.75;13.75;;;;;4.04;47.21;102219.88;4893099;29;45744;-71
2023/02/28 03:16:36;;;;;;;;;13.25;12.25;;;;;4.33;46.80;102268.84;4865092;29;45855;-71
2023/02/28 03:19:10;;;;;;;;;11.00;10.25;;;;;4.26;46.13;102262.56;4882846;29;45549;-71
2023/02/28 03:21:39;;;;;;;;;11.50;9.25;;;;;4.27;46.69;102275.78;4865551;29;45572;-71
2023/02/28 03:24:10;;;;;;;;;14.50;11.50;;;;;3.94;46.56;102212.63;4885135;29;46549;-71
2023/02/28 03:26:41;;;;;;;;;14.25;14.25;;;;;3.89;47.10;102202.00;4884995;29;45412;-71
2023/02/28 03:29:20;;;;;;;;;13.00;13.00;;;;;4.30;46.64;102271.44;4878268;29;45260;-71
2023/02/28 03:32:00;;;;;;;;;14.25;12.25;;;;;4.20;46.16;102262.44;4890388;29;45374;-71
2023/02/28 03:34:37;;;;;;;;;8.25;8.00;;;;;3.97;46.70;102241.75;4871971;29;45538;-71
2023/02/28 03:37:08;;;;;;;;;9.00;8.00;;;;;4.12;47.01;102256.13;4867923;29;46012;-71
2023/02/28 03:39:42;;;;;;;;;11.00;9.25;;;;;4.20;46.44;102279.19;4884240;29;45389;-71
2023/02/28 03:42:18;;;;;;;;;11.50;10.25;;;;;4.05;46.49;102255.13;4866640;29;45522;-71
2023/02/28 03:45:08;;;;;;;;;12.75;11.75;;;;;4.20;46.48;102278.28;4894951;29;45469;-71
2023/02/28 03:47:41;;;;;;;;;11.75;11.50;;;;;4.03;46.08;102254.19;4884650;29;45758;-71
2023/02/28 03:50:21;;;;;;;;;11.25;11.25;;;;;3.85;46.41;102230.94;4883450;29;45424;-71
2023/02/28 03:52:53;;;;;;;;;10.50;10.25;;;;;3.85;46.12;102236.25;4881757;29;45685;-71
2023/02/28 03:55:20;;;;;;;;;12.00;12.00;;;;;3.83;46.37;102233.56;4875268;29;45643;-71
2023/02/28 03:57:58;;;;;;;;;13.25;12.00;;;;;3.83;46.21;102227.41;4862980;29;45789;-71
2023/02/28 04:00:46;;;;;;;;;10.50;10.50;;;;;3.58;46.92;102199.63;4863228;29;45480;-71
2023/02/28 04:03:12;;;;;;;;;14.50;9.75;;;;;3.75;46.61;102231.63;4855795;29;45289;-71
2023/02/28 04:05:55;;;;;;;;;9.50;9.50;;;;;3.87;46.35;102248.59;4884479;29;46135;-71
2023/02/28 04:08:21;;;;;;;;;10.75;8.50;;;;;3.82;46.89;102236.16;4883464;29;45467;-71
2023/02/28 04:10:55;;;;;;;;;6.50;5.00;;;;;3.82;46.74;102238.81;4872100;29;45638;-71
2023/02/28 04:13:20;;;;;;;;;9.75;9.75;;;;;3.69;46.49;102216.53;4884460;29;45457;-71
2023/02/28 04:15:46;;;;;;;;;11.00;11.00;;;;;3.97;46.24;102270.81;4884218;29;45577;-71
2023/02/28 04:18:11;;;;;;;;;12.00;12.00;;;;;3.99;46.16;102278.75;4883976;29;45336;-72
2023/02/28 04:20:36;;;;;;;;;12.00;11.00;;;;;3.82;46.58;102239.69;4882141;29;45425;-71
2023/02/28 04:23:02;;;;;;;;;13.00;12.00;;;;;4.09;46.71;102280.72;4883354;29;45282;-71
2023/02/28 04:25:27;;;;;;;;;11.25;9.50;;;;;3.85;46.94;102239.75;4876495;29;47976;-72
2023/02/28 04:27:53;;;;;;;;;13.75;12.00;;;;;3.95;46.69;102250.53;4876278;29;45499;-72
2023/02/28 04:30:18;;;;;;;;;13.00;11.50;;;;;4.21;46.85;102288.91;4866555;29;45556;-72
2023/02/28 04:32:43;;;;;;;;;9.25;9.00;;;;;3.92;46.31;102240.75;4884273;29;45297;-72
2023/02/28 04:35:09;;;;;;;;;12.00;9.00;;;;;4.05;46.84;102269.19;4862960;29;48294;-72
2023/02/28 04:37:36;;;;;;;;;9.25;8.50;;;;;4.02;46.52;102262.97;4876415;29;45296;-72
2023/02/28 04:40:03;;;;;;;;;9.00;8.75;;;;;3.97;46.46;102259.34;4866679;29;45404;-71
2023/02/28 04:42:35;;;;;;;;;11.50;11.50;;;;;3.86;46.64;102249.47;4883993;29;45397;-71
2023/02/28 04:45:01;;;;;;;;;11.00;11.00;;;;;3.87;46.37;102255.63;4889917;29;45446;-72
2023/02/28 04:47:27;;;;;;;;;19.50;9.25;;;;;4.22;46.89;102308.28;4883874;29;45567;-72
2023/02/28 04:49:52;;;;;;;;;9.75;9.75;;;;;3.89;46.58;102253.91;4883193;29;45603;-72
2023/02/28 04:52:17;;;;;;;;;11.00;9.50;;;;;3.97;46.31;102270.81;4866768;29;45905;-72
2023/02/28 04:54:43;;;;;;;;;11.75;8.50;;;;;4.13;46.91;102292.25;4863718;29;47352;-72
2023/02/28 04:57:08;;;;;;;;;9.75;9.75;;;;;3.92;46.79;102256.63;4881732;29;45494;-72
2023/02/28 04:59:34;;;;;;;;;8.75;8.75;;;;;3.94;46.60;102261.94;4864831;29;45521;-72
2023/02/28 05:01:59;;;;;;;;;12.00;9.75;;;;;4.06;46.47;102302.72;4866483;29;45531;-71
2023/02/28 05:04:24;;;;;;;;;10.75;10.75;;;;;3.77;46.45;102253.69;4871292;29;45443;-72
2023/02/28 05:06:50;;;;;;;;;11.75;8.75;;;;;3.94;46.34;102269.84;4883438;29;45367;-72
2023/02/28 05:09:15;;;;;;;;;10.00;10.00;;;;;3.93;46.47;102271.63;4881930;29;45355;-71
2023/02/28 05:11:41;;;;;;;;;11.00;10.25;;;;;3.78;45.91;102271.31;4866437;29;45498;-72
2023/02/28 05:14:11;;;;;;;;;16.50;10.00;;;;;3.81;45.80;102289.84;4866369;29;46657;-72
2023/02/28 05:16:37;;;;;;;;;10.25;8.75;;;;;3.95;46.25;102304.25;4866559;29;45751;-72
2023/02/28 05:19:02;;;;;;;;;12.00;8.75;;;;;4.00;46.11;102313.16;4864262;29;45723;-72
2023/02/28 05:21:49;;;;;;;;;12.50;11.75;;;;;3.93;46.05;102294.53;4883464;29;45471;-72
2023/02/28 05:24:14;;;;;;;;;10.25;10.25;;;;;3.74;46.23;102259.78;4872200;29;45657;-71
2023/02/28 05:26:42;;;;;;;;;12.75;10.50;;;;;3.90;46.85;102301.50;4895615;29;45453;-71
2023/02/28 05:29:08;;;;;;;;;10.75;9.75;;;;;3.70;46.03;102256.19;4865452;29;45343;-71
2023/02/28 05:31:35;;;;;;;;;7.00;5.75;;;;;3.83;46.33;102283.75;4882449;29;45325;-72
2023/02/28 05:34:00;;;;;;;;;16.50;12.25;;;;;3.89;46.29;102299.75;4883138;29;45511;-71
2023/02/28 05:36:26;;;;;;;;;11.50;10.50;;;;;3.83;46.77;102269.66;4882266;29;45317;-73
2023/02/28 05:38:51;;;;;;;;;15.00;12.00;;;;;4.00;46.58;102305.22;4882823;29;45406;-71
2023/02/28 05:41:19;;;;;;;;;16.75;14.00;;;;;4.01;46.51;102298.16;4883096;29;45510;-71
2023/02/28 05:43:44;;;;;;;;;16.25;13.50;;;;;4.03;46.58;102302.66;4882172;29;46025;-71
2023/02/28 05:46:11;;;;;;;;;14.25;12.25;;;;;4.03;46.45;102299.13;4865326;29;45475;-71
2023/02/28 05:48:38;;;;;;;;;15.50;11.50;;;;;4.03;46.20;102294.72;4864929;29;45416;-71
2023/02/28 05:51:05;;;;;;;;;16.75;16.00;;;;;3.92;46.91;102276.88;4879596;29;45269;-72
2023/02/28 05:53:30;;;;;;;;;14.00;13.50;;;;;4.03;46.93;102304.41;4882532;29;45633;-72
2023/02/28 05:55:56;;;;;;;;;20.00;15.00;;;;;4.01;46.86;102298.16;4871119;29;45372;-72
2023/02/28 05:58:22;;;;;;;;;17.00;15.00;;;;;4.03;46.30;102304.41;4893456;29;45379;-71
2023/02/28 06:00:48;;;;;;;;;14.00;13.50;;;;;3.99;47.03;102291.97;4861011;29;45420;-71
2023/02/28 06:03:13;;;;;;;;;11.50;10.50;;;;;3.85;47.00;102276.75;4876143;29;45544;-71
2023/02/28 06:05:39;;;;;;;;;18.75;16.75;;;;;3.94;46.82;102299.81;4876625;29;45323;-71
2023/02/28 06:08:07;;;;;;;;;9.00;8.00;;;;;3.95;46.97;102304.25;4881876;29;45669;-72
2023/02/28 06:10:33;;;;;;;;;19.00;16.75;;;;;4.15;47.03;102343.41;4878811;29;45320;-72
2023/02/28 06:13:05;;;;;;;;;24.25;17.50;;;;;3.84;47.28;102288.19;4883008;29;45509;-72
2023/02/28 06:15:31;;;;;;;;;16.25;13.00;;;;;3.77;47.95;102285.38;4882735;29;45783;-72
2023/02/28 06:17:58;;;;;;;;;22.25;19.75;;;;;3.79;47.32;102296.84;4882628;29;45370;-72
2023/02/28 06:20:28;;;;;;;;;24.75;22.75;;;;;3.74;47.82;102302.03;4864929;29;45357;-71
2023/02/28 06:22:55;;;;;;;;;21.00;19.25;;;;;3.50;47.31;102287.47;4885128;29;45675;-71
2023/02/28 06:25:21;;;;;;;;;25.25;21.25;;;;;3.90;47.88;102358.75;4885918;29;45467;-72
2023/02/28 06:27:47;;;;;;;;;26.25;26.00;;;;;3.61;48.08;102298.28;4886099;29;45324;-72
2023/02/28 06:30:13;;;;;;;;;23.75;21.50;;;;;3.88;48.71;102347.25;4866465;29;45819;-72
2023/02/28 06:32:39;;;;;;;;;23.25;22.25;;;;;3.93;48.15;102353.53;4884206;29;46590;-72
2023/02/28 06:35:05;;;;;;;;;27.50;25.50;;;;;3.92;48.78;102366.69;4886968;29;46935;-71
2023/02/28 06:37:31;;;;;;;;;19.75;18.25;;;;;3.52;48.59;102313.91;4885711;29;45491;-71
2023/02/28 06:39:57;;;;;;;;;25.75;22.00;;;;;3.47;48.98;102297.94;4870335;29;45705;-73
2023/02/28 06:48:43;;;;;;;;;31.00;26.00;;;;;3.21;49.78;102307.03;5013087;23;67726;-82
2023/02/28 06:54:44;;;;;;;;;32.00;27.50;;;;;3.17;50.17;102302.56;4839751;29;45475;-82
2023/02/28 06:57:14;;;;;;;;;30.75;28.50;;;;;3.41;49.42;102342.72;4862224;29;45805;-81
2023/02/28 06:59:42;;;;;;;;;41.75;31.75;;;;;3.07;50.41;102278.59;4881625;29;45462;-82
2023/02/28 07:02:08;;;;;;;;;31.50;27.75;;;;;3.35;49.96;102326.72;4867999;29;46082;-81
2023/02/28 07:04:33;;;;;;;;;32.00;28.25;;;;;3.08;50.25;102290.06;4886812;29;45353;-82
2023/02/28 07:06:59;;;;;;;;;29.75;26.75;;;;;3.16;50.07;102288.47;4866164;29;45573;-82
2023/02/28 07:09:37;;;;;;;;;31.00;27.00;;;;;3.23;50.33;102300.94;4880846;29;45442;-82
2023/02/28 07:12:05;;;;;;;;;38.00;31.25;;;;;3.61;49.59;102387.16;4874773;29;45338;-81
2023/02/28 07:14:39;;;;;;;;;41.00;33.00;;;;;3.18;50.07;102328.09;4865078;29;47263;-82
2023/02/28 07:17:23;;;;;;;;;37.00;31.25;;;;;3.10;50.38;102327.91;4887335;29;45279;-82
2023/02/28 07:19:48;;;;;;;;;24.00;22.00;;;;;3.01;50.75;102307.47;4876887;29;45454;-79
2023/02/28 07:22:16;;;;;;;;;37.00;33.00;;;;;2.91;50.82;102281.75;4886406;29;45285;-80
2023/02/28 07:24:42;;;;;;;;;27.25;23.75;;;;;3.25;50.71;102344.09;4887379;29;45618;-78
2023/02/28 07:27:07;;;;;;;;;34.75;33.50;;;;;3.12;50.63;102318.28;4880565;29;45442;-79
2023/02/28 07:29:32;;;;;;;;;35.25;31.25;;;;;3.52;50.51;102372.00;4877431;29;45357;-77
2023/02/28 07:31:58;;;;;;;;;37.00;34.25;;;;;3.42;50.54;102364.72;4885547;29;45524;-77
2023/02/28 07:34:23;;;;;;;;;41.75;37.75;;;;;3.30;50.84;102336.28;4866476;29;48101;-77
2023/02/28 07:36:53;;;;;;;;;30.50;29.50;;;;;3.56;50.79;102386.16;4885830;29;45405;-77
2023/02/28 07:39:18;;;;;;;;;36.75;30.25;;;;;3.47;50.38;102365.72;4867259;29;45353;-77
2023/02/28 07:41:43;;;;;;;;;35.50;31.00;;;;;3.43;50.47;102375.31;4866885;29;47120;-78
2023/02/28 07:44:10;;;;;;;;;36.75;34.75;;;;;3.33;51.29;102366.28;4891240;29;46027;-78
2023/02/28 07:46:36;;;;;;;;;35.75;33.00;;;;;3.37;50.94;102364.59;4883720;29;45232;-77
2023/02/28 07:49:02;;;;;;;;;40.50;29.75;;;;;3.51;50.64;102397.50;4838044;29;45326;-77
2023/02/28 07:51:28;;;;;;;;;37.25;34.50;;;;;3.52;51.83;102396.66;4859487;29;45539;-78
2023/02/28 07:53:54;;;;;;;;;41.50;39.50;;;;;3.52;51.24;102398.41;4863920;29;46678;-78
2023/02/28 07:56:19;;;;;;;;;38.00;34.25;;;;;3.54;51.31;102394.03;4846085;29;45325;-79
2023/02/28 07:58:44;;;;;;;;;29.50;29.50;;;;;3.48;50.88;102392.16;4864663;29;45320;-78
2023/02/28 08:01:11;;;;;;;;;34.75;32.50;;;;;3.48;50.97;102386.88;4863423;29;45264;-78
2023/02/28 08:03:38;;;;;;;;;44.25;35.00;;;;;3.52;51.27;102394.03;4862282;29;46349;-78
2023/02/28 08:06:06;;;;;;;;;36.25;30.75;;;;;3.51;50.54;102399.28;4838940;29;45794;-79
2023/02/28 08:08:31;;;;;;;;;34.25;30.50;;;;;3.45;51.27;102384.16;4859027;29;45376;-78
2023/02/28 08:11:02;;;;;;;;;42.00;38.75;;;;;3.57;51.19;102398.50;4848969;29;45540;-78
2023/02/28 08:13:29;;;;;;;;;35.75;31.50;;;;;3.55;51.17;102390.56;4861769;29;45679;-79
2023/02/28 08:15:55;;;;;;;;;32.00;27.75;;;;;3.46;51.54;102382.44;4865597;29;45815;-78
2023/02/28 08:18:21;;;;;;;;;39.75;32.00;;;;;3.50;50.94;102389.56;4854196;29;45534;-78
2023/02/28 08:20:47;;;;;;;;;38.00;34.50;;;;;3.51;51.40;102383.44;4860217;29;45426;-79
2023/02/28 08:23:12;;;;;;;;;44.75;35.50;;;;;3.55;51.66;102398.47;4843900;29;48057;-78
2023/02/28 08:25:38;;;;;;;;;36.75;33.75;;;;;3.48;50.96;102391.28;4859143;29;45757;-78
2023/02/28 08:28:03;;;;;;;;;42.50;30.00;;;;;3.46;51.04;102398.28;4834079;29;45486;-79
2023/02/28 08:30:29;;;;;;;;;31.25;30.25;;;;;3.44;51.19;102408.78;4843363;29;45773;-78
2023/02/28 08:32:55;;;;;;;;;38.25;35.75;;;;;3.40;51.36;102391.06;4864645;29;46079;-78
2023/02/28 08:35:20;;;;;;;;;39.25;32.50;;;;;3.46;52.04;102404.44;4848290;29;45337;-78
2023/02/28 08:37:48;;;;;;;;;28.25;23.75;;;;;3.38;51.49;102386.63;4865608;29;45509;-79
2023/02/28 08:40:17;;;;;;;;;38.25;35.25;;;;;3.28;51.65;102377.59;4862004;29;45349;-79
2023/02/28 08:42:46;;;;;;;;;37.50;31.50;;;;;3.51;51.67;102413.34;4846649;29;47393;-78
2023/02/28 08:45:12;;;;;;;;;35.50;30.25;;;;;3.57;51.48;102422.28;4856233;29;45305;-78
2023/02/28 08:47:37;;;;;;;;;35.75;34.00;;;;;3.45;51.71;102391.19;4868590;29;45319;-78
2023/02/28 08:50:04;;;;;;;;;37.50;33.75;;;;;3.61;51.71;102409.19;4880231;29;45386;-78
2023/02/28 08:52:29;;;;;;;;;35.75;32.50;;;;;3.66;51.74;102411.94;4883748;29;45509;-78
2023/02/28 08:54:55;;;;;;;;;40.75;34.75;;;;;3.66;51.79;102412.81;4881929;29;45430;-78
2023/02/28 08:57:20;;;;;;;;;39.25;34.75;;;;;3.74;51.59;102407.69;4880312;29;45289;-78
2023/02/28 08:59:46;;;;;;;;;28.75;25.00;;;;;3.81;51.80;102408.72;4886071;29;45455;-79
2023/02/28 09:02:14;;;;;;;;;38.25;30.25;;;;;3.73;51.34;102381.28;4882452;29;45361;-78
2023/02/28 09:04:39;;;;;;;;;37.00;34.00;;;;;3.86;51.37;102397.41;4889710;29;45283;-79
2023/02/28 09:07:05;;;;;;;;;45.25;32.50;;;;;3.97;51.76;102397.63;4883918;29;45299;-79
2023/02/28 09:09:30;;;;;;;;;37.50;29.75;;;;;3.95;51.68;102385.28;4879968;29;45367;-79
2023/02/28 09:11:56;;;;;;;;;26.50;25.00;;;;;4.05;51.10;102405.75;4886927;29;45335;-78
2023/02/28 09:14:21;;;;;;;;;38.50;33.50;;;;;3.96;51.33;102385.31;4879895;29;45535;-78
2023/02/28 09:16:47;;;;;;;;;29.50;24.00;;;;;4.15;50.96;102399.78;4887493;29;45329;-78
2023/02/28 09:19:12;;;;;;;;;32.25;29.25;;;;;4.07;50.59;102389.03;4881947;29;45381;-78
2023/02/28 09:21:38;;;;;;;;;36.75;33.00;;;;;4.11;50.78;102399.69;4867357;29;48202;-78
2023/02/28 09:24:04;;;;;;;;;34.25;30.00;;;;;4.12;50.70;102409.41;4883313;29;45353;-78
2023/02/28 09:26:29;;;;;;;;;34.00;28.00;;;;;4.10;50.42;102417.28;4877116;29;45286;-78
2023/02/28 09:28:55;;;;;;;;;33.00;29.25;;;;;4.11;49.88;102416.44;4882647;29;45314;-78
2023/02/28 09:31:24;;;;;;;;;31.25;29.50;;;;;4.14;50.26;102415.59;4883149;29;45897;-78
2023/02/28 09:33:51;;;;;;;;;31.75;27.75;;;;;4.06;49.96;102387.28;4867155;29;45346;-78
2023/02/28 09:36:17;;;;;;;;;32.25;28.50;;;;;4.15;50.55;102399.78;4881230;29;45427;-78
2023/02/28 09:38:43;;;;;;;;;1.25;1.00;;;;;4.08;50.48;102380.25;4883261;29;45755;-79
2023/02/28 09:41:16;;;;;;;;;25.50;24.25;;;;;4.07;50.19;102378.47;4875475;29;45418;-79
2023/02/28 09:43:47;;;;;;;;;31.50;30.75;;;;;4.24;50.27;102399.97;4875597;29;45357;-79
2023/02/28 09:46:35;;;;;;;;;28.75;28.50;;;;;4.43;50.38;102403.88;4866301;29;45391;-78
2023/02/28 09:49:06;;;;;;;;;22.25;20.50;;;;;4.54;50.41;102408.47;4879307;29;46320;-78
2023/02/28 09:51:48;;;;;;;;;27.75;24.50;;;;;4.64;50.11;102398.13;4883859;29;45232;-79
2023/02/28 09:54:27;;;;;;;;;25.25;24.25;;;;;4.55;49.38;102373.25;4870069;29;45705;-79
2023/02/28 09:57:21;;;;;;;;;28.75;25.50;;;;;4.69;49.34;102400.81;4884414;29;45385;-79
2023/02/28 10:00:01;;;;;;;;;29.00;24.50;;;;;4.78;49.69;102401.00;4884424;29;45610;-79
2023/02/28 10:02:51;;;;;;;;;23.25;21.25;;;;;4.80;49.18;102393.97;4886577;29;45622;-79
2023/02/28 10:05:23;;;;;;;;;25.00;25.00;;;;;4.89;49.90;102390.59;4869563;29;46173;-79
2023/02/28 10:08:16;;;;;;;;;27.50;26.25;;;;;4.66;49.67;102332.03;4870312;29;45322;-78
2023/02/28 10:10:55;;;;;;;;;20.50;17.00;;;;;4.99;48.87;102387.28;4866846;29;46151;-80
2023/02/28 10:13:39;;;;;;;;;21.75;19.75;;;;;4.98;47.52;102395.19;4900447;29;45937;-82
2023/02/28 10:16:25;;;;;;;;;27.00;24.50;;;;;4.86;47.34;102376.44;4890020;29;45268;-82
2023/02/28 10:19:23;;;;;;;;;28.00;23.75;;;;;4.81;48.11;102377.25;4849047;29;45323;-82
2023/02/28 10:22:11;;;;;;;;;24.25;23.00;;;;;4.92;47.74;102377.44;4831866;29;45762;-83
2023/02/28 10:24:48;;;;;;;;;25.25;19.50;;;;;4.40;47.73;102263.66;4827590;29;47244;-84
2023/02/28 10:27:24;;;;;;;;;21.25;20.50;;;;;4.85;48.07;102340.28;4834166;29;45963;-84
2023/02/28 10:29:55;;;;;;;;;26.25;22.25;;;;;4.72;47.59;102302.13;4841096;29;45350;-84
2023/02/28 10:32:47;;;;;;;;;21.25;21.00;;;;;4.61;47.12;102284.31;4830600;29;45552;-83
2023/02/28 10:35:24;;;;;;;;;26.50;21.00;;;;;4.60;46.88;102269.31;4825535;29;46314;-84
2023/02/28 10:38:14;;;;;;;;;15.00;15.00;;;;;4.65;47.00;102272.03;4843354;29;46567;-83
2023/02/28 10:40:46;;;;;;;;;16.50;16.50;;;;;4.70;46.73;102265.06;4828556;29;45719;-84
2023/02/28 10:43:15;;;;;;;;;21.25;20.75;;;;;5.03;46.64;102332.63;4854855;29;45674;-84
2023/02/28 10:46:04;;;;;;;;;29.25;17.75;;;;;4.63;46.15;102256.13;4839286;29;46630;-83
2023/02/28 10:48:55;;;;;;;;;24.25;20.00;;;;;4.84;46.79;102294.38;4830723;29;45987;-83
2023/02/28 10:51:34;;;;;;;;;21.75;20.75;;;;;5.26;46.81;102361.22;4853621;29;45374;-85
2023/02/28 10:53:59;;;;;;;;;17.50;17.50;;;;;4.87;46.41;102267.09;4898308;29;45324;-85
2023/02/28 10:56:25;;;;;;;;;20.75;20.75;;;;;4.91;46.26;102267.16;4876807;29;46983;-85
2023/02/28 10:59:22;;;;;;;;;22.50;17.75;;;;;5.31;46.28;102312.75;4872184;29;45325;-84
2023/02/28 11:01:53;;;;;;;;;18.50;17.50;;;;;5.52;45.67;102330.69;4868462;29;45283;-85
2023/02/28 11:04:29;;;;;;;;;11.75;7.00;;;;;5.55;45.99;102336.06;4864350;29;45487;-85
2023/02/28 11:07:16;;;;;;;;;18.50;16.75;;;;;5.43;45.72;102293.50;4875932;29;47065;-85
2023/02/28 11:09:47;;;;;;;;;21.50;18.25;;;;;5.50;45.54;102286.53;4876714;29;45610;-85
2023/02/28 11:12:39;;;;;;;;;17.75;15.25;;;;;5.78;45.73;102327.53;4871431;29;45324;-85
2023/02/28 11:15:21;;;;;;;;;11.00;9.00;;;;;5.41;43.92;102259.91;4860999;29;45286;-85
2023/02/28 11:18:13;;;;;;;;;14.25;13.50;;;;;5.38;41.71;102252.84;4870288;29;47118;-85
2023/02/28 11:20:41;;;;;;;;;16.75;14.00;;;;;5.64;42.44;102298.19;4858900;29;46130;-84
2023/02/28 11:23:25;;;;;;;;;;;;;;;;;;;;;
2023/02/28 11:25:56;;;;;;;;;24.00;19.75;;;;;5.36;43.20;102255.47;4878552;29;71588;-85
2023/02/28 11:28:32;;;;;;;;;18.50;16.50;;;;;5.53;43.24;102270.66;4895053;29;46196;-85
2023/02/28 11:31:19;;;;;;;;;14.25;13.25;;;;;5.32;43.74;102219.19;4874786;29;45308;-85
2023/02/28 11:33:55;;;;;;;;;15.75;14.75;;;;;5.78;43.18;102301.03;4857014;29;45481;-84
2023/02/28 11:36:40;;;;;;;;;15.25;14.25;;;;;5.43;43.15;102218.44;4897539;29;45432;-85
2023/02/28 11:39:13;;;;;;;;;19.25;17.75;;;;;5.80;43.65;102270.13;4864679;29;48197;-85
2023/02/28 11:42:01;;;;;;;;;18.50;15.00;;;;;5.77;43.51;102258.63;4868092;29;45776;-85
2023/02/28 11:44:54;;;;;;;;;19.25;14.75;;;;;6.17;43.13;102304.16;4875063;29;45512;-85